Chemult, OR (97731)

8:19 AM PDT on August 20, 2014 (GMT -0700)
MesoWest MAZAMA OR US UPR | Change Station
CLOSE
Current Station
Personal Weather Station
Location: Chemult, OR
Elevation: 4596 ft
Nearby Weather Stations

Elev 4596 ft 42.99 °N, 121.81 °W | Updated 2 hours ago

Clear
Clear
39 °F
Feels Like 39 °F
N
Wind Variable Wind from North
Gusts 0.0 mph

Today
High -- | Low -- °F
--% Chance of Precip.
Yesterday
High -- | Low -- °F
Precip. -- in
6:18 AM 8:01 PM
Waning Crescent, 21% visible
Pressure 29.89 in
Visibility 10.0 miles
Clouds Clear
Windchill 39 °F
Dew Point Not available.
Humidity Not available.
Rainfall -999.00 in
Snow Depth 0 in
UV 1 out of 12
Pollen 5.30 out of 12
Air Quality Not available.
Flu Activity Not available.
METAR KLMT 201453Z 18003KT 10SM CLR 14/11 A3000 RMK AO2 SLP120 T01390106 51009

More Conditions Fewer Conditions

Pressure 29.89 in
Visibility 10.0 miles
Clouds Clear
Windchill 39 °F
Dew Point Not available.
Humidity Not available.
Rainfall -999.00 in
Snow Depth 0 in
UV 1 out of 12
Pollen 5.30 out of 12
Air Quality Not available.
Flu Activity Not available.
METAR KLMT 201453Z 18003KT 10SM CLR 14/11 A3000 RMK AO2 SLP120 T01390106 51009

More Conditions Fewer Conditions

10-Day Weather Forecast

Almanac

Astronomy

Aug. 20, 2014 Rise Set
Actual Time 6:18 AM PDT 8:01 PM PDT
Civil Twilight 5:48 AM PDT 8:32 PM PDT
Nautical Twilight 5:11 AM PDT 9:08 PM PDT
Astronomical Twilight 4:32 AM PDT 9:47 PM PDT
Moon 2:00 AM PDT 4:53 PM PDT
Length of Visible Light 14h 43m
Length of Day
13h 43m
Tomorrow will be 2m 41s shorter.
Waning Crescent, 21% of the Moon is Illuminated
Today
Waning Crescent
Aug 25
New
Sep 2
First Quarter
Sep 8
Full
Sep 15
Last Quarter

Today's Extremes

State Highs State Lows

Community

WunderPhotos

Upload Photos

1,745,661 photos uploaded!

Nearby

Snow Depth

Station Depth Elevation
Diamond Lake 0 in 5315 ft
Annie Springs 0 in 6020 ft
Sevenmile Marsh 0 in 6200 ft
Toketee Airstrip 0 in 3240 ft
Cascade Summit 0 in 4880 ft

Earthquake Activity

City Distance Mag. Time & Date
No recent earthquake activity has been reported nearby.
Minimum magnitude displayed is 2.5.

Coastal Water Temperatures

Place Temperature
No Stations Reporting

Nearby Weather Stations